sensor_id;sensor_type;location;lat;lon;timestamp;pressure;altitude;pressure_sealevel;temperature;humidity
79198;BME280;68628;48.714;9.472;2023-04-19T00:00:40;98592.66;;;9.71;72.16
79198;BME280;68628;48.714;9.472;2023-04-19T00:03:07;98592.03;;;9.85;71.58
79198;BME280;68628;48.714;9.472;2023-04-19T00:05:34;98588.25;;;9.79;71.92
79198;BME280;68628;48.714;9.472;2023-04-19T00:08:00;98592.03;;;9.69;72.12
79198;BME280;68628;48.714;9.472;2023-04-19T00:10:25;98590.34;;;9.59;72.36
79198;BME280;68628;48.714;9.472;2023-04-19T00:12:51;98600.69;;;9.61;72.29
79198;BME280;68628;48.714;9.472;2023-04-19T00:15:17;98590.47;;;9.58;72.79
79198;BME280;68628;48.714;9.472;2023-04-19T00:17:43;98593.78;;;9.60;73.05
79198;BME280;68628;48.714;9.472;2023-04-19T00:20:10;98582.94;;;9.63;72.34
79198;BME280;68628;48.714;9.472;2023-04-19T00:22:38;98589.34;;;9.60;73.25
79198;BME280;68628;48.714;9.472;2023-04-19T00:25:04;98581.50;;;9.69;72.87
79198;BME280;68628;48.714;9.472;2023-04-19T00:27:29;98587.09;;;9.74;72.54
79198;BME280;68628;48.714;9.472;2023-04-19T00:29:55;98583.78;;;9.72;72.59
79198;BME280;68628;48.714;9.472;2023-04-19T00:32:22;98572.56;;;9.53;72.44
79198;BME280;68628;48.714;9.472;2023-04-19T00:34:48;98582.44;;;9.59;72.45
79198;BME280;68628;48.714;9.472;2023-04-19T00:37:14;98580.16;;;9.64;72.54
79198;BME280;68628;48.714;9.472;2023-04-19T00:39:39;98578.16;;;9.50;73.00
79198;BME280;68628;48.714;9.472;2023-04-19T00:42:05;98575.53;;;9.58;72.53
79198;BME280;68628;48.714;9.472;2023-04-19T00:44:31;98574.22;;;9.54;72.41
79198;BME280;68628;48.714;9.472;2023-04-19T00:46:56;98571.84;;;9.43;72.66
79198;BME280;68628;48.714;9.472;2023-04-19T00:49:24;98572.94;;;9.24;73.66
79198;BME280;68628;48.714;9.472;2023-04-19T00:51:50;98566.53;;;9.26;73.33
79198;BME280;68628;48.714;9.472;2023-04-19T00:54:17;98569.84;;;9.37;73.73
79198;BME280;68628;48.714;9.472;2023-04-19T00:56:45;98572.56;;;9.61;73.26
79198;BME280;68628;48.714;9.472;2023-04-19T00:59:13;98565.63;;;9.44;72.71
79198;BME280;68628;48.714;9.472;2023-04-19T01:01:39;98569.81;;;9.28;72.99
79198;BME280;68628;48.714;9.472;2023-04-19T01:04:06;98565.41;;;9.29;73.46
79198;BME280;68628;48.714;9.472;2023-04-19T01:06:35;98560.44;;;9.26;73.15
79198;BME280;68628;48.714;9.472;2023-04-19T01:09:01;98564.28;;;9.40;73.37
79198;BME280;68628;48.714;9.472;2023-04-19T01:11:27;98547.38;;;9.42;72.59
79198;BME280;68628;48.714;9.472;2023-04-19T01:13:54;98549.66;;;9.37;72.92
79198;BME280;68628;48.714;9.472;2023-04-19T01:16:20;98539.72;;;9.23;73.85
79198;BME280;68628;48.714;9.472;2023-04-19T01:18:47;98541.75;;;9.29;73.50
79198;BME280;68628;48.714;9.472;2023-04-19T01:21:12;98545.84;;;9.31;73.29
79198;BME280;68628;48.714;9.472;2023-04-19T01:23:38;98548.69;;;9.38;73.64
79198;BME280;68628;48.714;9.472;2023-04-19T01:26:05;98546.81;;;9.22;73.59
79198;BME280;68628;48.714;9.472;2023-04-19T01:28:31;98537.66;;;9.43;73.14
79198;BME280;68628;48.714;9.472;2023-04-19T01:30:57;98539.31;;;9.44;73.25
79198;BME280;68628;48.714;9.472;2023-04-19T01:33:23;98539.59;;;9.32;73.28
79198;BME280;68628;48.714;9.472;2023-04-19T01:35:49;98535.19;;;9.41;73.60
79198;BME280;68628;48.714;9.472;2023-04-19T01:38:15;98540.13;;;9.44;73.55
79198;BME280;68628;48.714;9.472;2023-04-19T01:40:42;98541.06;;;9.27;73.08
79198;BME280;68628;48.714;9.472;2023-04-19T01:43:11;98535.28;;;9.23;73.83
79198;BME280;68628;48.714;9.472;2023-04-19T01:45:38;98535.63;;;9.20;74.45
79198;BME280;68628;48.714;9.472;2023-04-19T01:48:04;98532.97;;;9.20;73.61
79198;BME280;68628;48.714;9.472;2023-04-19T01:50:30;98525.78;;;9.22;73.85
79198;BME280;68628;48.714;9.472;2023-04-19T01:52:57;98529.91;;;9.33;73.78
79198;BME280;68628;48.714;9.472;2023-04-19T01:55:23;98523.78;;;9.24;73.82
79198;BME280;68628;48.714;9.472;2023-04-19T01:57:49;98522.75;;;9.09;74.14
79198;BME280;68628;48.714;9.472;2023-04-19T02:00:17;98520.31;;;9.15;74.27
79198;BME280;68628;48.714;9.472;2023-04-19T02:02:43;98521.41;;;9.05;74.88
79198;BME280;68628;48.714;9.472;2023-04-19T02:05:09;98524.31;;;8.93;74.72
79198;BME280;68628;48.714;9.472;2023-04-19T02:07:36;98516.44;;;8.93;74.62
79198;BME280;68628;48.714;9.472;2023-04-19T02:10:02;98517.09;;;8.95;75.29
79198;BME280;68628;48.714;9.472;2023-04-19T02:12:31;98518.78;;;9.05;74.37
79198;BME280;68628;48.714;9.472;2023-04-19T02:14:59;98515.84;;;9.08;74.61
79198;BME280;68628;48.714;9.472;2023-04-19T02:17:28;98515.97;;;8.98;74.91
79198;BME280;68628;48.714;9.472;2023-04-19T02:19:54;98510.88;;;8.96;74.95
79198;BME280;68628;48.714;9.472;2023-04-19T02:22:20;98511.19;;;8.93;75.36
79198;BME280;68628;48.714;9.472;2023-04-19T02:24:46;98499.69;;;8.94;75.13
79198;BME280;68628;48.714;9.472;2023-04-19T02:27:13;98499.53;;;8.96;74.91
79198;BME280;68628;48.714;9.472;2023-04-19T02:29:40;98503.47;;;8.92;74.86
79198;BME280;68628;48.714;9.472;2023-04-19T02:32:05;98496.78;;;9.06;74.57
79198;BME280;68628;48.714;9.472;2023-04-19T02:34:32;98494.75;;;8.99;74.84
79198;BME280;68628;48.714;9.472;2023-04-19T02:36:59;98496.72;;;8.89;75.43
79198;BME280;68628;48.714;9.472;2023-04-19T02:39:25;98489.88;;;9.05;74.22
79198;BME280;68628;48.714;9.472;2023-04-19T02:41:50;98493.72;;;8.84;75.29
79198;BME280;68628;48.714;9.472;2023-04-19T02:44:16;98492.66;;;8.69;75.88
79198;BME280;68628;48.714;9.472;2023-04-19T02:46:51;98490.75;;;8.79;75.27
79198;BME280;68628;48.714;9.472;2023-04-19T02:49:18;98488.91;;;8.71;75.50
79198;BME280;68628;48.714;9.472;2023-04-19T02:51:45;98487.25;;;8.70;75.69
79198;BME280;68628;48.714;9.472;2023-04-19T02:54:12;98480.34;;;8.69;75.83
79198;BME280;68628;48.714;9.472;2023-04-19T02:56:38;98482.41;;;8.57;76.13
79198;BME280;68628;48.714;9.472;2023-04-19T02:59:04;98481.44;;;8.58;76.41
79198;BME280;68628;48.714;9.472;2023-04-19T03:01:31;98479.09;;;8.47;76.60
79198;BME280;68628;48.714;9.472;2023-04-19T03:03:57;98477.84;;;8.41;76.74
79198;BME280;68628;48.714;9.472;2023-04-19T03:06:22;98469.31;;;8.39;76.61
79198;BME280;68628;48.714;9.472;2023-04-19T03:08:48;98469.63;;;8.36;76.90
79198;BME280;68628;48.714;9.472;2023-04-19T03:11:15;98465.56;;;8.42;76.42
79198;BME280;68628;48.714;9.472;2023-04-19T03:13:41;98470.25;;;8.30;77.12
79198;BME280;68628;48.714;9.472;2023-04-19T03:16:08;98471.56;;;8.08;77.73
79198;BME280;68628;48.714;9.472;2023-04-19T03:18:34;98471.41;;;8.09;77.42
79198;BME280;68628;48.714;9.472;2023-04-19T03:21:01;98473.97;;;8.01;78.24
79198;BME280;68628;48.714;9.472;2023-04-19T03:23:27;98466.41;;;7.98;77.67
79198;BME280;68628;48.714;9.472;2023-04-19T03:25:53;98472.25;;;7.92;78.20
79198;BME280;68628;48.714;9.472;2023-04-19T03:28:18;98471.34;;;7.83;78.32
79198;BME280;68628;48.714;9.472;2023-04-19T03:30:44;98471.88;;;7.87;78.41
79198;BME280;68628;48.714;9.472;2023-04-19T03:33:10;98465.88;;;7.94;77.75
79198;BME280;68628;48.714;9.472;2023-04-19T03:35:36;98462.13;;;7.79;78.36
79198;BME280;68628;48.714;9.472;2023-04-19T03:38:02;98460.13;;;7.73;79.22
79198;BME280;68628;48.714;9.472;2023-04-19T03:40:31;98457.09;;;7.86;78.52
79198;BME280;68628;48.714;9.472;2023-04-19T03:42:57;98445.59;;;7.78;78.95
79198;BME280;68628;48.714;9.472;2023-04-19T03:45:23;98454.22;;;7.71;79.54
79198;BME280;68628;48.714;9.472;2023-04-19T03:47:48;98448.66;;;7.74;78.58
79198;BME280;68628;48.714;9.472;2023-04-19T03:50:14;98451.16;;;7.75;79.09
79198;BME280;68628;48.714;9.472;2023-04-19T03:52:40;98434.25;;;7.78;78.57
79198;BME280;68628;48.714;9.472;2023-04-19T03:55:06;98443.78;;;7.79;79.05
79198;BME280;68628;48.714;9.472;2023-04-19T03:57:32;98446.66;;;7.67;79.05
79198;BME280;68628;48.714;9.472;2023-04-19T03:59:58;98439.91;;;7.65;79.03
79198;BME280;68628;48.714;9.472;2023-04-19T04:02:24;98444.84;;;7.68;79.31
79198;BME280;68628;48.714;9.472;2023-04-19T04:04:53;98442.97;;;7.60;79.40
79198;BME280;68628;48.714;9.472;2023-04-19T04:07:19;98451.06;;;7.49;79.49
79198;BME280;68628;48.714;9.472;2023-04-19T04:09:46;98444.09;;;7.58;79.48
79198;BME280;68628;48.714;9.472;2023-04-19T04:12:12;98451.06;;;7.49;79.54
79198;BME280;68628;48.714;9.472;2023-04-19T04:14:40;98451.50;;;7.44;79.96
79198;BME280;68628;48.714;9.472;2023-04-19T04:17:06;98456.22;;;7.41;79.58
79198;BME280;68628;48.714;9.472;2023-04-19T04:19:31;98459.44;;;7.34;80.13
79198;BME280;68628;48.714;9.472;2023-04-19T04:21:57;98453.47;;;7.42;79.40
79198;BME280;68628;48.714;9.472;2023-04-19T04:24:23;98457.88;;;7.42;79.33
79198;BME280;68628;48.714;9.472;2023-04-19T04:26:48;98462.50;;;7.30;80.36
79198;BME280;68628;48.714;9.472;2023-04-19T04:29:16;98462.06;;;7.34;79.83
79198;BME280;68628;48.714;9.472;2023-04-19T04:31:41;98461.59;;;7.39;79.44
79198;BME280;68628;48.714;9.472;2023-04-19T04:34:07;98460.56;;;7.50;79.19
79198;BME280;68628;48.714;9.472;2023-04-19T04:36:35;98462.69;;;7.46;79.39
79198;BME280;68628;48.714;9.472;2023-04-19T04:39:03;98467.09;;;7.46;79.47
79198;BME280;68628;48.714;9.472;2023-04-19T04:41:29;98459.22;;;7.46;79.52
79198;BME280;68628;48.714;9.472;2023-04-19T04:43:56;98458.41;;;7.63;78.70
79198;BME280;68628;48.714;9.472;2023-04-19T04:46:23;98466.56;;;7.60;79.41
79198;BME280;68628;48.714;9.472;2023-04-19T04:48:51;98466.13;;;7.65;78.88
79198;BME280;68628;48.714;9.472;2023-04-19T04:51:16;98462.28;;;7.59;79.09
79198;BME280;68628;48.714;9.472;2023-04-19T04:53:42;98467.31;;;7.53;79.40
79198;BME280;68628;48.714;9.472;2023-04-19T04:56:08;98461.78;;;7.56;79.07
79198;BME280;68628;48.714;9.472;2023-04-19T04:58:33;98458.09;;;7.66;79.08
79198;BME280;68628;48.714;9.472;2023-04-19T05:00:59;98465.59;;;7.79;78.79
79198;BME280;68628;48.714;9.472;2023-04-19T05:03:25;98469.13;;;7.70;78.81
79198;BME280;68628;48.714;9.472;2023-04-19T05:05:51;98468.81;;;7.73;79.14
79198;BME280;68628;48.714;9.472;2023-04-19T05:08:17;98460.72;;;7.84;78.16
79198;BME280;68628;48.714;9.472;2023-04-19T05:10:42;98463.78;;;7.80;78.43
79198;BME280;68628;48.714;9.472;2023-04-19T05:13:08;98471.72;;;7.88;78.55
79198;BME280;68628;48.714;9.472;2023-04-19T05:15:34;98465.88;;;7.94;78.43
79198;BME280;68628;48.714;9.472;2023-04-19T05:17:59;98476.22;;;7.96;78.20
79198;BME280;68628;48.714;9.472;2023-04-19T05:20:25;98466.53;;;8.14;77.65
79198;BME280;68628;48.714;9.472;2023-04-19T05:22:55;98477.19;;;8.13;77.31
79198;BME280;68628;48.714;9.472;2023-04-19T05:25:22;98475.56;;;8.20;76.92
79198;BME280;68628;48.714;9.472;2023-04-19T05:27:48;98470.41;;;8.28;76.86
79198;BME280;68628;48.714;9.472;2023-04-19T05:30:14;98477.28;;;8.29;76.63
79198;BME280;68628;48.714;9.472;2023-04-19T05:32:39;98474.03;;;8.36;75.66
79198;BME280;68628;48.714;9.472;2023-04-19T05:35:05;98466.59;;;8.49;75.61
79198;BME280;68628;48.714;9.472;2023-04-19T05:37:31;98474.75;;;8.64;74.62
79198;BME280;68628;48.714;9.472;2023-04-19T05:39:57;98478.94;;;8.83;74.74
79198;BME280;68628;48.714;9.472;2023-04-19T05:42:23;98475.03;;;8.95;73.99
79198;BME280;68628;48.714;9.472;2023-04-19T05:44:49;98473.41;;;8.94;73.79
79198;BME280;68628;48.714;9.472;2023-04-19T05:47:14;98482.91;;;8.87;73.38
79198;BME280;68628;48.714;9.472;2023-04-19T05:49:41;98480.44;;;8.86;74.11
79198;BME280;68628;48.714;9.472;2023-04-19T05:52:07;98479.75;;;8.83;73.77
79198;BME280;68628;48.714;9.472;2023-04-19T05:54:32;98482.56;;;8.90;73.37
79198;BME280;68628;48.714;9.472;2023-04-19T05:57:01;98482.50;;;8.74;74.09
79198;BME280;68628;48.714;9.472;2023-04-19T05:59:27;98484.97;;;8.75;74.04
79198;BME280;68628;48.714;9.472;2023-04-19T06:01:53;98472.03;;;8.82;73.88
79198;BME280;68628;48.714;9.472;2023-04-19T06:04:20;98476.13;;;8.76;74.05
79198;BME280;68628;48.714;9.472;2023-04-19T06:06:46;98471.09;;;8.91;73.74
79198;BME280;68628;48.714;9.472;2023-04-19T06:09:11;98478.75;;;8.76;73.44
79198;BME280;68628;48.714;9.472;2023-04-19T06:11:38;98478.94;;;8.83;73.86
79198;BME280;68628;48.714;9.472;2023-04-19T06:14:04;98478.56;;;8.70;74.08
79198;BME280;68628;48.714;9.472;2023-04-19T06:16:30;98484.19;;;8.83;73.77
79198;BME280;68628;48.714;9.472;2023-04-19T06:18:56;98478.69;;;9.03;72.80
79198;BME280;68628;48.714;9.472;2023-04-19T06:21:22;98476.81;;;8.87;72.90
79198;BME280;68628;48.714;9.472;2023-04-19T06:23:47;98477.50;;;8.97;73.48
79198;BME280;68628;48.714;9.472;2023-04-19T06:26:13;98469.63;;;8.97;72.71
79198;BME280;68628;48.714;9.472;2023-04-19T06:28:38;98473.97;;;9.06;72.41
79198;BME280;68628;48.714;9.472;2023-04-19T06:31:04;98469.19;;;9.10;72.56
79198;BME280;68628;48.714;9.472;2023-04-19T06:33:30;98472.47;;;9.04;71.94
79198;BME280;68628;48.714;9.472;2023-04-19T06:35:55;98480.44;;;9.37;71.71
79198;BME280;68628;48.714;9.472;2023-04-19T06:38:21;98477.97;;;9.35;71.08
79198;BME280;68628;48.714;9.472;2023-04-19T06:40:47;98484.25;;;9.42;70.78
79198;BME280;68628;48.714;9.472;2023-04-19T06:43:15;98474.97;;;9.22;71.33
79198;BME280;68628;48.714;9.472;2023-04-19T06:45:41;98488.03;;;9.48;70.91
79198;BME280;68628;48.714;9.472;2023-04-19T06:48:06;98483.97;;;9.11;71.00
79198;BME280;68628;48.714;9.472;2023-04-19T06:50:32;98483.38;;;9.33;70.53
79198;BME280;68628;48.714;9.472;2023-04-19T06:52:57;98480.75;;;9.33;71.16
79198;BME280;68628;48.714;9.472;2023-04-19T06:55:23;98485.03;;;9.34;70.33
79198;BME280;68628;48.714;9.472;2023-04-19T06:57:49;98481.91;;;9.39;70.03
79198;BME280;68628;48.714;9.472;2023-04-19T07:00:14;98483.44;;;9.50;70.34
79198;BME280;68628;48.714;9.472;2023-04-19T07:02:40;98476.06;;;9.62;71.14
79198;BME280;68628;48.714;9.472;2023-04-19T07:05:06;98476.72;;;9.72;69.54
79198;BME280;68628;48.714;9.472;2023-04-19T07:07:32;98483.78;;;9.80;69.75
79198;BME280;68628;48.714;9.472;2023-04-19T07:09:58;98484.13;;;9.93;70.23
79198;BME280;68628;48.714;9.472;2023-04-19T07:12:24;98476.75;;;9.89;70.54
79198;BME280;68628;48.714;9.472;2023-04-19T07:14:49;98473.13;;;9.98;68.92
79198;BME280;68628;48.714;9.472;2023-04-19T07:17:21;98471.16;;;10.08;68.87
79198;BME280;68628;48.714;9.472;2023-04-19T07:19:47;98467.84;;;10.14;68.04
79198;BME280;68628;48.714;9.472;2023-04-19T07:22:14;98468.19;;;9.95;67.44
79198;BME280;68628;48.714;9.472;2023-04-19T07:24:39;98467.50;;;10.01;67.73
79198;BME280;68628;48.714;9.472;2023-04-19T07:27:09;98463.22;;;10.25;67.32
79198;BME280;68628;48.714;9.472;2023-04-19T07:29:34;98463.53;;;10.30;66.82
79198;BME280;68628;48.714;9.472;2023-04-19T07:32:01;98470.13;;;10.34;66.80
79198;BME280;68628;48.714;9.472;2023-04-19T07:34:27;98459.44;;;10.52;66.41
79198;BME280;68628;48.714;9.472;2023-04-19T07:36:52;98448.44;;;10.88;66.98
79198;BME280;68628;48.714;9.472;2023-04-19T07:39:20;98459.78;;;10.89;64.15
79198;BME280;68628;48.714;9.472;2023-04-19T07:41:46;98455.38;;;11.21;63.80
79198;BME280;68628;48.714;9.472;2023-04-19T07:44:12;98452.81;;;11.59;62.86
79198;BME280;68628;48.714;9.472;2023-04-19T07:46:38;98455.19;;;11.22;62.06
79198;BME280;68628;48.714;9.472;2023-04-19T07:49:06;98451.19;;;10.95;63.51
79198;BME280;68628;48.714;9.472;2023-04-19T07:51:31;98450.16;;;11.04;63.70
79198;BME280;68628;48.714;9.472;2023-04-19T07:53:57;98446.84;;;11.10;63.36
79198;BME280;68628;48.714;9.472;2023-04-19T07:56:23;98450.47;;;11.09;62.98
79198;BME280;68628;48.714;9.472;2023-04-19T07:58:50;98447.94;;;10.93;63.36
79198;BME280;68628;48.714;9.472;2023-04-19T08:01:16;98451.91;;;11.20;62.98
79198;BME280;68628;48.714;9.472;2023-04-19T08:03:41;98450.00;;;11.06;63.78
79198;BME280;68628;48.714;9.472;2023-04-19T08:06:07;98448.84;;;11.63;61.69
79198;BME280;68628;48.714;9.472;2023-04-19T08:08:34;98444.78;;;11.98;60.97
79198;BME280;68628;48.714;9.472;2023-04-19T08:11:00;98439.09;;;12.10;60.44
79198;BME280;68628;48.714;9.472;2023-04-19T08:13:27;98452.50;;;12.23;61.09
79198;BME280;68628;48.714;9.472;2023-04-19T08:15:53;98446.25;;;11.78;61.33
79198;BME280;68628;48.714;9.472;2023-04-19T08:18:20;98441.50;;;11.50;61.84
79198;BME280;68628;48.714;9.472;2023-04-19T08:20:46;98439.69;;;11.27;62.56
79198;BME280;68628;48.714;9.472;2023-04-19T08:23:12;98446.72;;;11.35;62.97
79198;BME280;68628;48.714;9.472;2023-04-19T08:25:38;98438.72;;;11.75;61.43
79198;BME280;68628;48.714;9.472;2023-04-19T08:28:05;98436.75;;;11.69;62.34
79198;BME280;68628;48.714;9.472;2023-04-19T08:30:31;98433.78;;;11.87;60.90
79198;BME280;68628;48.714;9.472;2023-04-19T08:32:57;98433.81;;;11.40;61.97
79198;BME280;68628;48.714;9.472;2023-04-19T08:35:22;98437.22;;;11.49;62.52
79198;BME280;68628;48.714;9.472;2023-04-19T08:37:49;98442.22;;;11.67;62.68
79198;BME280;68628;48.714;9.472;2023-04-19T08:40:15;98434.22;;;11.52;61.57
79198;BME280;68628;48.714;9.472;2023-04-19T08:42:42;98440.03;;;11.47;61.71
79198;BME280;68628;48.714;9.472;2023-04-19T08:45:08;98438.41;;;11.46;61.59
79198;BME280;68628;48.714;9.472;2023-04-19T08:47:38;98430.19;;;11.41;62.42
79198;BME280;68628;48.714;9.472;2023-04-19T08:50:06;98428.88;;;11.37;61.69
79198;BME280;68628;48.714;9.472;2023-04-19T08:52:35;98428.44;;;11.57;60.79
79198;BME280;68628;48.714;9.472;2023-04-19T08:55:07;98424.47;;;11.76;60.39
79198;BME280;68628;48.714;9.472;2023-04-19T08:57:34;98430.28;;;11.48;61.46
79198;BME280;68628;48.714;9.472;2023-04-19T09:00:02;98427.97;;;11.30;62.23
79198;BME280;68628;48.714;9.472;2023-04-19T09:02:47;98421.69;;;10.99;61.63
79198;BME280;68628;48.714;9.472;2023-04-19T09:05:17;98421.22;;;11.27;61.81
79198;BME280;68628;48.714;9.472;2023-04-19T09:07:44;98428.78;;;11.77;59.37
79198;BME280;68628;48.714;9.472;2023-04-19T09:10:18;98416.34;;;11.62;61.39
79198;BME280;68628;48.714;9.472;2023-04-19T09:13:02;98413.06;;;11.60;60.06
79198;BME280;68628;48.714;9.472;2023-04-19T09:15:37;98414.00;;;11.44;60.46
79198;BME280;68628;48.714;9.472;2023-04-19T09:18:06;98411.53;;;11.43;60.75
79198;BME280;68628;48.714;9.472;2023-04-19T09:20:39;98410.69;;;12.12;59.27
79198;BME280;68628;48.714;9.472;2023-04-19T09:23:08;98404.88;;;12.61;58.67
79198;BME280;68628;48.714;9.472;2023-04-19T09:25:37;98395.53;;;13.54;53.94
79198;BME280;68628;48.714;9.472;2023-04-19T09:28:13;98404.16;;;14.12;52.54
79198;BME280;68628;48.714;9.472;2023-04-19T09:30:40;98400.06;;;14.73;50.28
79198;BME280;68628;48.714;9.472;2023-04-19T09:33:06;98390.63;;;14.29;51.47
79198;BME280;68628;48.714;9.472;2023-04-19T09:35:40;98397.31;;;13.96;52.61
79198;BME280;68628;48.714;9.472;2023-04-19T09:38:12;98389.19;;;13.33;54.37
79198;BME280;68628;48.714;9.472;2023-04-19T09:40:39;98377.16;;;12.57;55.57
79198;BME280;68628;48.714;9.472;2023-04-19T09:43:05;98378.28;;;12.99;54.50
79198;BME280;68628;48.714;9.472;2023-04-19T09:45:43;98380.22;;;12.76;54.26
79198;BME280;68628;48.714;9.472;2023-04-19T09:48:11;98369.75;;;13.04;55.53
79198;BME280;68628;48.714;9.472;2023-04-19T09:50:54;98374.50;;;13.09;55.07
79198;BME280;68628;48.714;9.472;2023-04-19T09:53:25;98370.03;;;13.09;56.40
79198;BME280;68628;48.714;9.472;2023-04-19T09:55:52;98359.91;;;13.13;55.19
79198;BME280;68628;48.714;9.472;2023-04-19T09:58:19;98358.44;;;13.32;54.40
79198;BME280;68628;48.714;9.472;2023-04-19T10:00:47;98367.03;;;13.77;54.11
79198;BME280;68628;48.714;9.472;2023-04-19T10:03:15;98356.53;;;13.91;53.50
79198;BME280;68628;48.714;9.472;2023-04-19T10:05:43;98352.53;;;13.73;54.76
79198;BME280;68628;48.714;9.472;2023-04-19T10:08:11;98357.78;;;13.45;54.88
79198;BME280;68628;48.714;9.472;2023-04-19T10:10:41;98355.88;;;13.39;54.33
79198;BME280;68628;48.714;9.472;2023-04-19T10:13:12;98354.78;;;13.11;55.70
79198;BME280;68628;48.714;9.472;2023-04-19T10:15:43;98361.47;;;13.07;56.65
79198;BME280;68628;48.714;9.472;2023-04-19T10:18:10;98359.22;;;13.26;55.46
79198;BME280;68628;48.714;9.472;2023-04-19T10:20:58;98353.81;;;12.97;56.79
79198;BME280;68628;48.714;9.472;2023-04-19T10:23:30;98348.63;;;13.26;54.85
79198;BME280;68628;48.714;9.472;2023-04-19T10:25:57;98350.78;;;13.37;55.13
79198;BME280;68628;48.714;9.472;2023-04-19T10:28:27;98347.91;;;13.82;54.34
79198;BME280;68628;48.714;9.472;2023-04-19T10:30:57;98345.75;;;13.92;53.20
79198;BME280;68628;48.714;9.472;2023-04-19T10:33:30;98342.38;;;14.05;53.81
79198;BME280;68628;48.714;9.472;2023-04-19T10:36:00;98348.31;;;14.14;53.86
79198;BME280;68628;48.714;9.472;2023-04-19T10:38:47;98344.59;;;13.52;54.68
79198;BME280;68628;48.714;9.472;2023-04-19T10:41:14;98341.69;;;13.96;54.94
79198;BME280;68628;48.714;9.472;2023-04-19T10:43:46;98349.31;;;13.78;55.17
79198;BME280;68628;48.714;9.472;2023-04-19T10:48:57;98342.84;;;13.59;55.47
79198;BME280;68628;48.714;9.472;2023-04-19T10:51:28;98337.56;;;13.37;54.83
79198;BME280;68628;48.714;9.472;2023-04-19T10:53:58;98338.41;;;13.23;56.23
79198;BME280;68628;48.714;9.472;2023-04-19T10:59:10;98324.03;;;12.89;57.49
79198;BME280;68628;48.714;9.472;2023-04-19T11:04:15;98324.50;;;13.36;56.21
79198;BME280;68628;48.714;9.472;2023-04-19T11:07:03;98311.13;;;13.22;55.65
79198;BME280;68628;48.714;9.472;2023-04-19T11:09:32;98312.53;;;13.18;55.13
79198;BME280;68628;48.714;9.472;2023-04-19T11:12:05;98304.66;;;13.25;56.29
79198;BME280;68628;48.714;9.472;2023-04-19T11:14:53;98302.06;;;13.31;55.87
79198;BME280;68628;48.714;9.472;2023-04-19T11:17:29;98297.09;;;13.43;55.52
79198;BME280;68628;48.714;9.472;2023-04-19T11:25:20;98292.66;;;12.64;58.42
79198;BME280;68628;48.714;9.472;2023-04-19T11:27:49;98296.88;;;12.43;58.74
79198;BME280;68628;48.714;9.472;2023-04-19T11:30:21;98290.97;;;12.26;58.21
79198;BME280;68628;48.714;9.472;2023-04-19T11:32:55;98290.47;;;12.68;57.38
79198;BME280;68628;48.714;9.472;2023-04-19T11:35:24;98288.56;;;12.83;58.74
79198;BME280;68628;48.714;9.472;2023-04-19T11:37:52;98293.59;;;12.41;59.97
79198;BME280;68628;48.714;9.472;2023-04-19T11:40:22;98293.88;;;12.31;59.23
79198;BME280;68628;48.714;9.472;2023-04-19T11:42:55;98294.16;;;12.37;60.34
79198;BME280;68628;48.714;9.472;2023-04-19T11:45:33;98287.47;;;12.41;60.64
79198;BME280;68628;48.714;9.472;2023-04-19T11:48:12;98279.47;;;11.89;61.80
79198;BME280;68628;48.714;9.472;2023-04-19T11:50:43;98280.72;;;12.02;61.48
79198;BME280;68628;48.714;9.472;2023-04-19T11:53:22;98283.38;;;11.63;63.02
79198;BME280;68628;48.714;9.472;2023-04-19T11:55:51;98286.94;;;11.71;63.45
79198;BME280;68628;48.714;9.472;2023-04-19T12:01:12;98286.16;;;11.47;66.25
79198;BME280;68628;48.714;9.472;2023-04-19T12:03:44;98283.06;;;11.05;67.32
79198;BME280;68628;48.714;9.472;2023-04-19T12:06:13;98277.06;;;10.88;69.12
79198;BME280;68628;48.714;9.472;2023-04-19T12:08:48;98271.56;;;11.21;69.17
79198;BME280;68628;48.714;9.472;2023-04-19T12:11:17;98277.22;;;11.10;69.97
79198;BME280;68628;48.714;9.472;2023-04-19T12:14:07;98277.97;;;11.04;70.74
79198;BME280;68628;48.714;9.472;2023-04-19T12:16:40;98287.66;;;11.03;72.90
79198;BME280;68628;48.714;9.472;2023-04-19T12:19:17;98287.19;;;11.23;71.21
79198;BME280;68628;48.714;9.472;2023-04-19T12:21:45;98278.13;;;11.02;72.27
79198;BME280;68628;48.714;9.472;2023-04-19T12:24:14;98280.09;;;10.77;73.37
79198;BME280;68628;48.714;9.472;2023-04-19T12:26:55;98284.28;;;10.94;73.61
79198;BME280;68628;48.714;9.472;2023-04-19T12:29:21;98286.75;;;10.96;74.10
79198;BME280;68628;48.714;9.472;2023-04-19T12:31:47;98275.22;;;10.97;73.74
79198;BME280;68628;48.714;9.472;2023-04-19T12:34:12;98274.63;;;10.55;75.85
79198;BME280;68628;48.714;9.472;2023-04-19T12:36:38;98283.28;;;10.32;76.23
79198;BME280;68628;48.714;9.472;2023-04-19T12:39:04;98284.09;;;10.41;74.22
79198;BME280;68628;48.714;9.472;2023-04-19T12:41:30;98281.53;;;10.16;75.46
79198;BME280;68628;48.714;9.472;2023-04-19T12:43:55;98276.47;;;10.46;74.91
79198;BME280;68628;48.714;9.472;2023-04-19T12:46:21;98271.28;;;10.30;74.04
79198;BME280;68628;48.714;9.472;2023-04-19T12:48:47;98271.06;;;10.48;73.39
79198;BME280;68628;48.714;9.472;2023-04-19T12:51:12;98277.38;;;10.39;73.97
79198;BME280;68628;48.714;9.472;2023-04-19T12:53:40;98274.59;;;10.63;73.16
79198;BME280;68628;48.714;9.472;2023-04-19T12:56:06;98263.50;;;10.45;74.43
79198;BME280;68628;48.714;9.472;2023-04-19T12:58:32;98261.47;;;10.55;72.62
79198;BME280;68628;48.714;9.472;2023-04-19T13:00:57;98270.53;;;10.53;73.25
79198;BME280;68628;48.714;9.472;2023-04-19T13:03:23;98261.59;;;10.62;73.78
79198;BME280;68628;48.714;9.472;2023-04-19T13:05:49;98271.03;;;10.79;72.72
79198;BME280;68628;48.714;9.472;2023-04-19T13:08:14;98266.66;;;10.40;73.97
79198;BME280;68628;48.714;9.472;2023-04-19T13:10:41;98265.19;;;10.38;74.84
79198;BME280;68628;48.714;9.472;2023-04-19T13:13:06;98265.47;;;10.03;74.45
79198;BME280;68628;48.714;9.472;2023-04-19T13:15:32;98274.75;;;10.22;73.77
79198;BME280;68628;48.714;9.472;2023-04-19T13:17:58;98255.53;;;9.65;75.52
79198;BME280;68628;48.714;9.472;2023-04-19T13:20:23;98261.25;;;9.77;75.90
79198;BME280;68628;48.714;9.472;2023-04-19T13:22:49;98261.88;;;9.88;74.11
79198;BME280;68628;48.714;9.472;2023-04-19T13:25:14;98256.81;;;9.86;74.49